Terminal Aerodrome Forecast
Issued by NWS Shreveport, LA

Home | Current Version | Previous Version | Text Only | Print | Product List | Glossary On
Versions: 1 2 3 4 5 6 7 8 9 10 11 12 13 14 15
000
FTUS44 KSHV 270529
TAFGGG
TAF
KGGG 270529Z 2706/2806 13003KT P6SM VCSH SCT050
      TEMPO 2712/2714 5SM BR FEW020 BKN045
     FM271600 VRB06KT P6SM SCT050 SCT120
     FM271700 06004KT P6SM VCSH BKN040
     FM280000 10007KT P6SM SCT050=

USA.gov is the U.S. government's official web portal to all federal, state and local government web resources and services.